Time;durP1;ratioP1;P1;durP2;ratioP2;P2;SDS_P1;SDS_P2;PMS_P1;PMS_P2;Temp;Humidity;BMP_temperature;BMP_pressure;BME280_temperature;BME280_humidity;BME280_pressure;Samples;Min_cycle;Max_cycle;Signal;HPM_P1;HPM_P2
2024/01/19 00:01:25;;;;;;;26.90;15.13;;;;;;;-0.78;84.97;95040.03;5019799;28;20191;-76
2024/01/19 00:03:50;;;;;;;25.27;14.67;;;;;;;-0.93;84.97;95050.22;5014864;28;20222;-76
2024/01/19 00:06:15;;;;;;;27.27;14.73;;;;;;;-0.80;85.40;95045.22;5012968;28;20226;-76
2024/01/19 00:08:41;;;;;;;29.23;16.27;;;;;;;-0.85;84.95;95052.31;5028153;28;20253;-76
2024/01/19 00:11:12;;;;;;;29.03;15.93;;;;;;;-0.83;84.60;95058.16;5028012;28;20226;-76
2024/01/19 00:13:37;;;;;;;25.33;15.27;;;;;;;-0.98;84.47;95061.59;4993910;28;20198;-75
2024/01/19 00:16:03;;;;;;;27.97;15.67;;;;;;;-0.92;85.07;95079.91;5012640;28;20255;-76
2024/01/19 00:18:28;;;;;;;26.20;14.20;;;;;;;-0.90;84.13;95069.63;5012565;28;20198;-76
2024/01/19 00:20:54;;;;;;;25.53;14.67;;;;;;;-0.89;84.41;95082.25;5011193;28;20218;-76
2024/01/19 00:23:19;;;;;;;26.73;15.27;;;;;;;-0.95;84.41;95079.28;5028014;28;20636;-76
2024/01/19 00:25:44;;;;;;;25.77;14.70;;;;;;;-1.01;85.17;95077.06;5014337;28;20225;-77
2024/01/19 00:28:09;;;;;;;27.50;14.77;;;;;;;-0.96;84.87;95078.47;5011558;28;20191;-76
2024/01/19 00:30:35;;;;;;;30.17;16.07;;;;;;;-0.86;85.05;95084.66;5012085;28;20221;-76
2024/01/19 00:33:00;;;;;;;25.63;15.40;;;;;;;-0.77;84.83;95090.13;5012153;28;20192;-76
2024/01/19 00:35:25;;;;;;;26.07;14.27;;;;;;;-0.76;84.32;95087.47;5012367;28;20195;-76
2024/01/19 00:37:51;;;;;;;28.53;15.10;;;;;;;-0.73;84.31;95094.94;5012471;28;20194;-76
2024/01/19 00:40:16;;;;;;;21.60;12.93;;;;;;;-0.72;84.52;95091.47;5027207;28;20217;-76
2024/01/19 00:42:42;;;;;;;27.57;14.33;;;;;;;-0.76;84.07;95099.41;5027618;28;20260;-76
2024/01/19 00:45:09;;;;;;;24.33;14.27;;;;;;;-0.70;84.38;95102.41;5034997;28;20199;-76
2024/01/19 00:47:35;;;;;;;27.80;14.80;;;;;;;-0.72;84.09;95100.84;5027513;28;20182;-76
2024/01/19 00:50:01;;;;;;;24.63;14.57;;;;;;;-0.82;84.01;95100.56;5028577;28;20264;-76
2024/01/19 00:52:27;;;;;;;28.27;14.03;;;;;;;-0.79;84.17;95109.78;5027843;28;20191;-76
2024/01/19 00:54:52;;;;;;;24.57;14.73;;;;;;;-0.73;84.46;95109.41;5012145;28;20707;-76
2024/01/19 00:57:17;;;;;;;22.43;14.37;;;;;;;-0.65;84.22;95117.44;5027504;28;20187;-76
2024/01/19 00:59:43;;;;;;;22.40;13.83;;;;;;;-0.64;84.32;95121.63;5026661;28;20736;-76
2024/01/19 01:02:08;;;;;;;22.13;13.30;;;;;;;-0.65;83.46;95114.88;5027315;28;20194;-76
2024/01/19 01:04:33;;;;;;;23.30;14.10;;;;;;;-0.69;83.75;95123.63;5010636;28;20321;-76
2024/01/19 01:07:00;;;;;;;25.43;15.13;;;;;;;-0.71;83.60;95133.09;5011934;28;20651;-77
2024/01/19 01:09:25;;;;;;;26.10;14.90;;;;;;;-0.68;84.19;95136.28;5011464;28;20214;-76
2024/01/19 01:11:50;;;;;;;24.73;15.60;;;;;;;-0.69;83.36;95138.94;5010607;28;20194;-75
2024/01/19 01:14:16;;;;;;;26.77;13.33;;;;;;;-0.66;83.49;95136.19;5010769;28;20199;-75
2024/01/19 01:16:41;;;;;;;25.67;14.60;;;;;;;-0.64;83.91;95144.56;5026991;28;20191;-76
2024/01/19 01:19:06;;;;;;;27.97;14.10;;;;;;;-0.70;83.73;95150.06;5026588;28;20686;-75
2024/01/19 01:21:32;;;;;;;22.23;13.70;;;;;;;-0.76;83.94;95158.88;5027067;28;20191;-76
2024/01/19 01:23:57;;;;;;;22.63;13.77;;;;;;;-0.73;84.25;95175.72;5009150;28;20215;-76
2024/01/19 01:26:23;;;;;;;23.07;14.10;;;;;;;-0.70;84.14;95170.44;5026991;28;20223;-75
2024/01/19 01:28:48;;;;;;;25.53;14.83;;;;;;;-0.75;83.85;95172.44;5010206;28;20198;-76
2024/01/19 01:31:13;;;;;;;26.07;15.47;;;;;;;-0.73;84.05;95176.53;5009914;28;20186;-76
2024/01/19 01:33:39;;;;;;;30.77;16.57;;;;;;;-0.70;83.75;95185.75;5026680;28;20198;-75
2024/01/19 01:36:04;;;;;;;29.33;15.23;;;;;;;-0.68;84.05;95183.94;5011509;28;20652;-76
2024/01/19 01:38:30;;;;;;;26.20;14.50;;;;;;;-0.72;83.96;95193.47;5011663;28;20679;-76
2024/01/19 01:40:55;;;;;;;21.83;13.60;;;;;;;-0.70;84.08;95195.94;5010902;28;20214;-75
2024/01/19 01:43:23;;;;;;;21.73;14.80;;;;;;;-0.63;83.60;95195.47;5011028;28;20216;-76
2024/01/19 01:45:48;;;;;;;27.03;14.97;;;;;;;-0.68;83.74;95192.41;4993643;28;20645;-76
2024/01/19 01:48:14;;;;;;;22.87;14.23;;;;;;;-0.64;83.61;95201.50;5026637;28;20193;-76
2024/01/19 01:50:39;;;;;;;23.47;14.13;;;;;;;-0.66;83.60;95205.88;5025937;28;20214;-76
2024/01/19 01:53:05;;;;;;;23.97;13.63;;;;;;;-0.68;83.35;95214.53;5018857;28;20279;-76
2024/01/19 01:55:30;;;;;;;23.97;13.97;;;;;;;-0.64;83.76;95216.78;5009820;28;20221;-75
2024/01/19 01:57:56;;;;;;;21.63;14.40;;;;;;;-0.66;83.63;95221.16;5009776;28;20194;-76
2024/01/19 02:00:21;;;;;;;24.03;15.10;;;;;;;-0.72;83.29;95224.06;5010493;28;20214;-76
2024/01/19 02:02:47;;;;;;;25.20;14.20;;;;;;;-0.64;83.87;95221.91;5026173;28;20190;-76
2024/01/19 02:05:12;;;;;;;27.27;13.47;;;;;;;-0.74;83.21;95222.50;5026211;28;20187;-76
2024/01/19 02:07:37;;;;;;;23.70;13.77;;;;;;;-0.83;83.14;95226.41;5011141;28;20215;-76
2024/01/19 02:10:03;;;;;;;24.77;14.10;;;;;;;-0.78;83.95;95218.50;5011126;28;20214;-76
2024/01/19 02:12:29;;;;;;;26.23;15.43;;;;;;;-0.79;84.13;95224.53;5025150;28;20278;-76
2024/01/19 02:14:56;;;;;;;23.73;14.93;;;;;;;-0.75;83.99;95228.53;5028427;28;20190;-76
2024/01/19 02:17:23;;;;;;;21.87;13.83;;;;;;;-0.91;83.44;95218.38;5009699;28;20217;-76
2024/01/19 02:19:49;;;;;;;23.73;13.57;;;;;;;-0.83;83.76;95225.59;5011791;28;20272;-76
2024/01/19 02:22:14;;;;;;;24.37;14.10;;;;;;;-0.76;83.52;95219.25;4993298;28;20668;-76
2024/01/19 02:24:39;;;;;;;21.67;14.20;;;;;;;-0.76;83.31;95222.59;5010544;28;20288;-75
2024/01/19 02:27:05;;;;;;;29.10;15.13;;;;;;;-0.70;83.40;95234.19;5009616;28;20205;-76
2024/01/19 02:29:30;;;;;;;23.87;14.70;;;;;;;-0.69;83.32;95235.84;5008933;28;20237;-76
2024/01/19 02:31:56;;;;;;;24.57;13.73;;;;;;;-0.67;83.20;95237.38;5010845;28;20265;-74
2024/01/19 02:34:22;;;;;;;24.40;15.23;;;;;;;-0.70;83.35;95241.84;5010761;28;20179;-76
2024/01/19 02:36:48;;;;;;;23.97;14.30;;;;;;;-0.77;83.45;95238.00;5016536;28;20186;-76
2024/01/19 02:39:13;;;;;;;21.47;14.07;;;;;;;-0.73;82.94;95242.00;5025228;28;20280;-76
2024/01/19 02:41:40;;;;;;;25.87;13.70;;;;;;;-0.69;83.09;95239.22;5036419;28;20739;-76
2024/01/19 02:44:05;;;;;;;19.83;13.97;;;;;;;-0.65;82.98;95243.22;5009129;28;20224;-76
2024/01/19 02:46:30;;;;;;;26.23;14.23;;;;;;;-0.73;82.83;95247.09;5025743;28;20564;-76
2024/01/19 02:48:56;;;;;;;21.83;15.40;;;;;;;-0.65;83.04;95250.03;5011518;28;20694;-76
2024/01/19 02:51:21;;;;;;;24.93;14.60;;;;;;;-0.64;83.14;95256.78;5025351;28;20802;-76
2024/01/19 02:53:46;;;;;;;22.67;14.80;;;;;;;-0.68;82.89;95257.88;5025608;28;20289;-76
2024/01/19 02:56:12;;;;;;;23.10;14.07;;;;;;;-0.77;82.55;95254.13;4995451;28;20791;-76
2024/01/19 02:58:37;;;;;;;23.13;14.77;;;;;;;-0.78;82.29;95261.84;5029704;28;20204;-76
2024/01/19 03:01:03;;;;;;;25.37;14.33;;;;;;;-0.96;82.52;95264.53;5012900;28;20277;-76
2024/01/19 03:03:28;;;;;;;28.60;14.73;;;;;;;-1.08;82.62;95265.19;5010692;28;20207;-76
2024/01/19 03:05:53;;;;;;;23.30;13.63;;;;;;;-1.06;82.79;95265.94;5013023;28;20193;-76
2024/01/19 03:08:21;;;;;;;24.77;13.57;;;;;;;-1.07;82.77;95263.44;5014478;28;20183;-76
2024/01/19 03:10:46;;;;;;;22.50;13.67;;;;;;;-1.18;83.35;95266.59;5034013;28;20221;-76
2024/01/19 03:13:12;;;;;;;23.03;14.03;;;;;;;-1.19;83.38;95273.41;5011989;28;20274;-76
2024/01/19 03:15:37;;;;;;;22.17;14.50;;;;;;;-1.16;83.54;95275.78;5013991;28;20185;-76
2024/01/19 03:18:03;;;;;;;23.13;13.73;;;;;;;-1.25;83.46;95266.09;4996561;28;20202;-75
2024/01/19 03:20:29;;;;;;;24.50;13.20;;;;;;;-1.29;83.74;95271.47;5028938;28;20260;-75
2024/01/19 03:22:54;;;;;;;21.17;14.07;;;;;;;-1.26;83.37;95277.19;5015333;28;20276;-76
2024/01/19 03:25:19;;;;;;;20.70;13.57;;;;;;;-1.28;83.70;95276.47;5029113;28;20186;-76
2024/01/19 03:27:45;;;;;;;24.63;14.37;;;;;;;-1.29;84.11;95282.47;5012883;28;20274;-75
2024/01/19 03:30:11;;;;;;;22.23;13.13;;;;;;;-1.18;83.96;95282.69;5028610;28;20217;-76
2024/01/19 03:32:36;;;;;;;20.77;13.90;;;;;;;-1.21;84.23;95284.59;5013793;28;20194;-76
2024/01/19 03:35:02;;;;;;;24.20;14.07;;;;;;;-1.13;83.96;95279.09;5028920;28;20179;-76
2024/01/19 03:37:30;;;;;;;21.50;14.50;;;;;;;-1.14;83.97;95273.19;5028985;28;20187;-76
2024/01/19 03:39:55;;;;;;;20.87;13.90;;;;;;;-1.17;84.00;95273.34;5027771;28;20277;-76
2024/01/19 03:42:21;;;;;;;20.70;13.60;;;;;;;-1.15;84.11;95274.91;5028785;28;20632;-76
2024/01/19 03:44:46;;;;;;;22.23;13.23;;;;;;;-1.10;84.25;95282.28;5028698;28;20221;-76
2024/01/19 03:47:11;;;;;;;22.33;13.57;;;;;;;-1.21;83.94;95279.50;5018053;28;20190;-76
2024/01/19 03:49:36;;;;;;;19.40;13.40;;;;;;;-1.17;83.55;95283.53;5028119;28;20313;-74
2024/01/19 03:52:07;;;;;;;24.33;13.40;;;;;;;-1.17;84.28;95278.44;5012228;28;20276;-76
2024/01/19 03:54:33;;;;;;;22.03;12.80;;;;;;;-1.10;84.00;95284.84;5022546;28;20222;-76
2024/01/19 03:57:00;;;;;;;20.27;12.70;;;;;;;-1.27;84.03;95277.28;5003967;28;20207;-76
2024/01/19 03:59:26;;;;;;;21.13;12.97;;;;;;;-1.25;84.13;95283.13;5011644;28;20217;-76
2024/01/19 04:01:52;;;;;;;22.77;13.97;;;;;;;-1.24;83.85;95280.47;5028497;28;20183;-75
2024/01/19 04:04:17;;;;;;;19.47;12.57;;;;;;;-1.22;83.87;95275.31;5013183;28;20248;-75
2024/01/19 04:06:42;;;;;;;18.90;12.13;;;;;;;-1.33;83.88;95280.16;5028128;28;20183;-76
2024/01/19 04:09:08;;;;;;;20.00;12.23;;;;;;;-1.29;84.06;95281.66;5027969;28;20734;-76
2024/01/19 04:11:34;;;;;;;23.97;12.73;;;;;;;-1.34;83.38;95291.25;5013186;28;20179;-76
2024/01/19 04:14:00;;;;;;;21.23;13.13;;;;;;;-1.45;83.40;95285.00;4994556;28;20182;-76
2024/01/19 04:16:25;;;;;;;20.47;12.17;;;;;;;-1.46;83.73;95293.56;5028231;28;20191;-76
2024/01/19 04:18:50;;;;;;;21.30;13.03;;;;;;;-1.50;83.95;95281.91;5029777;28;20222;-76
2024/01/19 04:21:15;;;;;;;21.17;12.47;;;;;;;-1.51;83.85;95277.69;5027728;28;20215;-75
2024/01/19 04:23:41;;;;;;;20.77;13.20;;;;;;;-1.53;84.01;95288.88;5028036;28;20277;-76
2024/01/19 04:26:06;;;;;;;22.03;13.00;;;;;;;-1.53;83.96;95287.13;5014141;28;20186;-76
2024/01/19 04:28:32;;;;;;;21.23;12.80;;;;;;;-1.50;83.93;95288.72;5023472;28;20194;-75
2024/01/19 04:30:57;;;;;;;24.33;13.17;;;;;;;-1.52;83.77;95285.41;5023476;28;20214;-76
2024/01/19 04:33:22;;;;;;;22.43;12.63;;;;;;;-1.56;83.69;95287.31;5012853;28;20706;-76
2024/01/19 04:35:47;;;;;;;19.50;13.73;;;;;;;-1.57;83.83;95287.41;5027894;28;20245;-76
2024/01/19 04:38:13;;;;;;;18.90;12.37;;;;;;;-1.44;83.83;95286.66;5012579;28;20895;-76
2024/01/19 04:40:38;;;;;;;27.03;14.30;;;;;;;-1.58;83.59;95291.66;5010794;28;20210;-76
2024/01/19 04:43:04;;;;;;;22.23;12.83;;;;;;;-1.62;83.53;95291.91;4996018;28;20218;-75
2024/01/19 04:45:29;;;;;;;19.40;12.93;;;;;;;-1.66;83.86;95298.88;5027592;28;20190;-76
2024/01/19 04:47:55;;;;;;;23.03;13.53;;;;;;;-1.73;83.56;95300.91;5032761;28;20217;-76
2024/01/19 04:50:20;;;;;;;21.23;13.40;;;;;;;-1.71;83.71;95308.47;5034006;28;20593;-77
2024/01/19 04:52:45;;;;;;;20.00;12.37;;;;;;;-1.80;83.73;95304.69;5029495;28;20207;-77
2024/01/19 04:55:11;;;;;;;21.07;12.60;;;;;;;-1.87;83.66;95315.25;5029559;28;20585;-76
2024/01/19 04:57:36;;;;;;;22.33;13.53;;;;;;;-1.85;84.00;95323.66;5032105;28;20193;-77
2024/01/19 05:00:02;;;;;;;20.03;12.73;;;;;;;-1.83;84.18;95327.75;5012211;28;20216;-77
2024/01/19 05:02:29;;;;;;;21.00;13.07;;;;;;;-1.88;83.90;95328.88;5021814;28;20190;-77
2024/01/19 05:04:55;;;;;;;20.20;12.03;;;;;;;-1.85;83.95;95327.00;5029936;28;20203;-77
2024/01/19 05:07:20;;;;;;;18.20;13.30;;;;;;;-1.83;84.04;95339.66;5033093;28;20605;-77
2024/01/19 05:09:45;;;;;;;25.00;15.17;;;;;;;-1.90;83.82;95343.41;5030088;28;20265;-77
2024/01/19 05:12:11;;;;;;;24.27;15.13;;;;;;;-2.00;83.18;95348.16;5029913;28;20262;-77
2024/01/19 05:14:36;;;;;;;26.67;14.57;;;;;;;-1.97;83.85;95339.53;5017836;28;20183;-77
2024/01/19 05:17:01;;;;;;;27.30;16.63;;;;;;;-2.07;83.62;95345.06;4997945;28;20282;-77
2024/01/19 05:19:27;;;;;;;22.50;15.80;;;;;;;-2.10;83.48;95355.41;5015321;28;20675;-77
2024/01/19 05:21:52;;;;;;;22.37;15.07;;;;;;;-2.16;83.83;95358.25;5036109;28;20570;-77
2024/01/19 05:24:18;;;;;;;23.33;14.63;;;;;;;-2.25;83.51;95361.25;5025771;28;20221;-76
2024/01/19 05:26:43;;;;;;;23.93;14.47;;;;;;;-2.18;83.65;95375.31;4996100;28;20190;-77
2024/01/19 05:29:09;;;;;;;23.83;15.07;;;;;;;-2.20;83.65;95374.56;5012337;28;20217;-77
2024/01/19 05:31:34;;;;;;;25.67;15.03;;;;;;;-2.25;83.56;95381.59;5027864;28;20198;-77
2024/01/19 05:33:59;;;;;;;29.43;17.63;;;;;;;-2.22;83.77;95378.91;5013045;28;20183;-77
2024/01/19 05:36:25;;;;;;;37.37;22.30;;;;;;;-2.24;83.70;95388.31;4995961;28;20191;-75
2024/01/19 05:38:50;;;;;;;32.33;19.00;;;;;;;-2.17;83.70;95387.13;5012735;28;20666;-77
2024/01/19 05:41:20;;;;;;;31.70;17.77;;;;;;;-2.10;83.68;95395.31;5013713;28;20194;-77
2024/01/19 05:43:45;;;;;;;27.10;15.70;;;;;;;-2.13;83.51;95398.78;5011087;28;20208;-77
2024/01/19 05:46:12;;;;;;;28.33;17.53;;;;;;;-2.04;83.90;95403.44;5013950;28;20195;-77
2024/01/19 05:48:37;;;;;;;27.57;16.00;;;;;;;-2.00;83.98;95401.59;5031049;28;20185;-77
2024/01/19 05:51:03;;;;;;;25.47;15.47;;;;;;;-2.01;83.87;95408.41;5010395;28;20190;-77
2024/01/19 05:53:28;;;;;;;29.00;16.23;;;;;;;-1.93;84.17;95407.19;5030332;28;20202;-77
2024/01/19 05:55:54;;;;;;;25.37;16.00;;;;;;;-1.86;83.87;95411.06;5014395;28;20198;-77
2024/01/19 05:58:19;;;;;;;82.73;40.23;;;;;;;-1.81;84.74;95416.75;5028616;28;20187;-77
2024/01/19 06:00:44;;;;;;;48.27;26.37;;;;;;;-1.77;84.53;95416.53;5030350;28;20214;-77
2024/01/19 06:03:10;;;;;;;41.07;23.80;;;;;;;-1.68;84.94;95434.78;5014259;28;20293;-77
2024/01/19 06:05:35;;;;;;;37.00;20.57;;;;;;;-1.61;84.83;95436.94;5029920;28;20198;-78
2024/01/19 06:08:01;;;;;;;35.43;21.17;;;;;;;-1.63;84.66;95437.94;4998504;28;20266;-78
2024/01/19 06:10:26;;;;;;;30.83;20.73;;;;;;;-1.56;84.86;95436.72;4997372;28;20217;-78
2024/01/19 06:12:51;;;;;;;27.53;19.17;;;;;;;-1.52;84.32;95450.94;5013679;28;20321;-78
2024/01/19 06:15:17;;;;;;;26.33;16.90;;;;;;;-1.67;84.32;95441.56;5016068;28;20852;-77
2024/01/19 06:17:42;;;;;;;32.00;17.47;;;;;;;-1.66;84.75;95449.09;5013897;28;20217;-78
2024/01/19 06:20:08;;;;;;;31.13;17.50;;;;;;;-1.68;84.08;95455.16;5013686;28;20207;-77
2024/01/19 06:22:33;;;;;;;29.67;16.77;;;;;;;-1.76;84.38;95458.94;5028148;28;20187;-76
2024/01/19 06:24:59;;;;;;;30.60;16.77;;;;;;;-1.79;85.21;95458.22;5011956;28;20215;-78
2024/01/19 06:27:24;;;;;;;27.30;15.03;;;;;;;-1.86;84.96;95459.44;5013074;28;20240;-77
2024/01/19 06:29:50;;;;;;;24.43;16.63;;;;;;;-1.81;84.38;95467.69;4996309;28;20646;-78
2024/01/19 06:32:16;;;;;;;26.70;15.43;;;;;;;-1.77;83.94;95470.00;5029685;28;20638;-76
2024/01/19 06:34:41;;;;;;;24.30;15.10;;;;;;;-1.86;84.36;95470.44;5014986;28;20193;-77
2024/01/19 06:37:07;;;;;;;28.53;17.63;;;;;;;-1.84;84.66;95473.75;5029708;28;20185;-77
2024/01/19 06:39:32;;;;;;;23.73;16.67;;;;;;;-1.84;84.61;95485.66;5012896;28;20227;-77
2024/01/19 06:41:57;;;;;;;31.40;18.70;;;;;;;-1.85;84.87;95489.09;5017274;28;20222;-77
2024/01/19 06:44:23;;;;;;;23.03;15.20;;;;;;;-1.85;84.33;95491.66;5015852;28;20230;-77
2024/01/19 06:46:48;;;;;;;25.03;15.47;;;;;;;-1.75;84.62;95495.38;4997455;28;20226;-77
2024/01/19 06:49:14;;;;;;;24.20;15.47;;;;;;;-1.65;84.65;95496.59;5013401;28;20214;-77
2024/01/19 06:51:39;;;;;;;26.30;15.13;;;;;;;-1.69;84.34;95500.16;5030402;28;20190;-78
2024/01/19 06:54:05;;;;;;;25.80;14.67;;;;;;;-1.67;84.09;95508.56;5014397;28;20218;-77
2024/01/19 06:56:30;;;;;;;26.40;14.63;;;;;;;-1.73;83.79;95517.31;5014354;28;20196;-77
2024/01/19 06:58:56;;;;;;;25.73;15.83;;;;;;;-1.80;83.84;95513.41;5013243;28;20217;-77
2024/01/19 07:01:23;;;;;;;25.50;14.97;;;;;;;-1.87;83.68;95526.50;4998983;28;20190;-78
2024/01/19 07:03:48;;;;;;;28.33;14.77;;;;;;;-1.88;83.92;95528.22;5031772;28;20199;-77
2024/01/19 07:06:13;;;;;;;23.80;14.17;;;;;;;-1.98;83.79;95536.38;5031772;28;20907;-78
2024/01/19 07:08:39;;;;;;;27.90;14.57;;;;;;;-2.07;83.91;95542.72;5015587;28;20187;-76
2024/01/19 07:11:04;;;;;;;23.50;13.50;;;;;;;-2.10;84.15;95541.16;5014847;28;20185;-77
2024/01/19 07:13:29;;;;;;;21.20;13.67;;;;;;;-2.22;83.44;95541.69;5017917;28;20373;-78
2024/01/19 07:15:55;;;;;;;21.27;13.17;;;;;;;-2.29;83.61;95555.63;5016249;28;20223;-77
2024/01/19 07:18:20;;;;;;;20.10;13.63;;;;;;;-2.32;83.60;95556.56;5015733;28;20202;-78
2024/01/19 07:20:45;;;;;;;21.10;13.67;;;;;;;-2.35;84.06;95553.34;5031773;28;20207;-78
2024/01/19 07:23:11;;;;;;;20.43;12.50;;;;;;;-2.42;83.89;95559.59;5017416;28;20221;-77
2024/01/19 07:25:36;;;;;;;18.57;12.30;;;;;;;-2.47;83.74;95567.44;5013000;28;20607;-78
2024/01/19 07:28:02;;;;;;;20.33;13.57;;;;;;;-2.48;83.53;95575.94;5012551;28;20190;-78
2024/01/19 07:30:27;;;;;;;24.93;16.33;;;;;;;-2.51;84.16;95570.19;5013621;28;20246;-77
2024/01/19 07:32:52;;;;;;;25.70;14.83;;;;;;;-2.45;84.09;95575.00;5028747;28;20668;-77
2024/01/19 07:35:19;;;;;;;21.23;13.93;;;;;;;-2.42;83.56;95582.50;5012295;28;20187;-78
2024/01/19 07:37:45;;;;;;;28.63;15.83;;;;;;;-2.50;83.30;95582.81;5011505;28;20803;-78
2024/01/19 07:40:10;;;;;;;26.33;14.53;;;;;;;-2.48;82.91;95587.84;5010722;28;20302;-78
2024/01/19 07:42:36;;;;;;;26.10;15.50;;;;;;;-2.57;82.96;95594.97;5016735;28;20245;-78
2024/01/19 07:45:01;;;;;;;23.33;14.17;;;;;;;-2.41;83.69;95596.84;4998680;28;20211;-77
2024/01/19 07:47:27;;;;;;;21.40;12.37;;;;;;;-2.57;83.00;95594.97;5032191;28;20639;-78
2024/01/19 07:49:52;;;;;;;22.40;13.73;;;;;;;-2.52;83.32;95594.78;5014833;28;20207;-78
2024/01/19 07:52:18;;;;;;;19.33;12.43;;;;;;;-2.49;83.38;95594.66;5014981;28;20193;-78
2024/01/19 07:54:43;;;;;;;25.03;13.50;;;;;;;-2.47;83.26;95595.44;5015333;28;20186;-79
2024/01/19 07:57:09;;;;;;;23.83;13.80;;;;;;;-2.38;83.13;95605.19;5014449;28;20186;-78
2024/01/19 07:59:35;;;;;;;19.87;12.13;;;;;;;-2.38;82.73;95612.00;5013690;28;20217;-78
2024/01/19 08:02:01;;;;;;;21.10;12.00;;;;;;;-2.37;82.60;95611.91;5014876;28;20688;-79
2024/01/19 08:04:26;;;;;;;22.80;12.20;;;;;;;-2.32;82.65;95620.16;4999418;28;20234;-78
2024/01/19 08:06:52;;;;;;;21.37;11.87;;;;;;;-2.28;82.56;95625.94;5015778;28;20214;-78
2024/01/19 08:09:17;;;;;;;21.80;13.33;;;;;;;-2.26;82.27;95631.78;5014217;28;20543;-79
2024/01/19 08:11:42;;;;;;;33.07;18.87;;;;;;;-2.23;82.23;95636.72;5017212;28;20202;-79
2024/01/19 08:14:08;;;;;;;20.60;12.20;;;;;;;-2.30;82.66;95637.88;5032857;28;20270;-77
2024/01/19 08:16:33;;;;;;;15.40;11.33;;;;;;;-2.10;82.77;95644.66;5014464;28;20218;-78
2024/01/19 08:18:58;;;;;;;26.47;13.90;;;;;;;-2.11;82.01;95643.00;5013976;28;20203;-77
2024/01/19 08:21:24;;;;;;;25.67;13.60;;;;;;;-1.96;82.17;95654.19;5030347;28;20194;-78
2024/01/19 08:23:49;;;;;;;21.17;12.27;;;;;;;-1.97;81.95;95648.28;5030342;28;20203;-76
2024/01/19 08:26:15;;;;;;;25.67;15.47;;;;;;;-1.86;81.58;95655.41;5016803;28;20183;-78
2024/01/19 08:28:45;;;;;;;22.03;15.40;;;;;;;-1.52;81.36;95659.78;5032632;28;20217;-78
2024/01/19 08:31:11;;;;;;;24.27;18.10;;;;;;;-1.56;80.53;95659.13;5000691;28;20210;-78
2024/01/19 08:33:36;;;;;;;29.60;18.73;;;;;;;-1.51;80.22;95671.63;5015875;28;20221;-79
2024/01/19 08:36:02;;;;;;;24.27;13.33;;;;;;;-1.66;80.71;95675.72;5016101;28;20187;-78
2024/01/19 08:38:27;;;;;;;15.63;10.90;;;;;;;-1.66;81.42;95680.00;5013086;28;20226;-78
2024/01/19 08:40:53;;;;;;;18.87;11.40;;;;;;;-1.38;80.36;95676.97;5012519;28;20687;-78
2024/01/19 08:43:18;;;;;;;17.60;10.97;;;;;;;-1.57;80.87;95692.28;5013045;28;20202;-79
2024/01/19 08:45:44;;;;;;;18.23;10.53;;;;;;;-1.49;80.56;95680.84;5013160;28;20207;-79
2024/01/19 08:48:09;;;;;;;16.10;10.67;;;;;;;-1.40;80.57;95682.16;5029891;28;20194;-78
2024/01/19 08:50:34;;;;;;;15.83;10.30;;;;;;;-1.09;79.77;95678.94;5028964;28;20235;-78
2024/01/19 08:53:00;;;;;;;19.10;11.83;;;;;;;-0.92;80.24;95680.69;4994756;28;20220;-79
2024/01/19 08:55:25;;;;;;;17.90;11.70;;;;;;;-0.91;79.38;95680.59;5012414;28;20669;-78
2024/01/19 08:57:50;;;;;;;15.50;10.30;;;;;;;-0.95;79.87;95679.13;5028445;28;20194;-78
2024/01/19 09:00:16;;;;;;;18.20;10.80;;;;;;;-0.87;78.70;95682.13;5011328;28;20211;-78
2024/01/19 09:02:41;;;;;;;17.87;10.33;;;;;;;-0.89;78.84;95688.16;5029474;28;20209;-79
2024/01/19 09:05:10;;;;;;;13.33;9.40;;;;;;;-0.74;78.88;95681.50;5024860;28;20608;-79
2024/01/19 09:07:35;;;;;;;13.43;10.30;;;;;;;-0.79;78.58;95683.47;5011971;28;20209;-78
2024/01/19 09:10:01;;;;;;;15.03;10.83;;;;;;;-0.67;78.70;95698.16;5011461;28;20206;-78
2024/01/19 09:12:27;;;;;;;18.30;11.40;;;;;;;-0.57;78.58;95702.72;5012332;28;20198;-78
2024/01/19 09:14:54;;;;;;;17.87;11.10;;;;;;;-0.37;78.28;95714.47;5012852;28;20183;-77
2024/01/19 09:17:19;;;;;;;15.13;9.80;;;;;;;-0.44;77.84;95725.91;5011729;28;20279;-78
2024/01/19 09:19:44;;;;;;;16.97;10.30;;;;;;;-0.43;77.29;95724.19;5011924;28;20237;-79
2024/01/19 09:22:10;;;;;;;14.70;10.10;;;;;;;-0.36;77.36;95731.41;5011502;28;20191;-79
2024/01/19 09:24:35;;;;;;;15.97;10.03;;;;;;;-0.42;76.50;95734.31;5011665;28;20261;-78
2024/01/19 09:27:00;;;;;;;14.73;9.47;;;;;;;-0.42;77.31;95741.97;5028180;28;20187;-79
2024/01/19 09:29:26;;;;;;;15.70;9.00;;;;;;;-0.19;77.37;95745.88;5011230;28;20218;-79
2024/01/19 09:31:51;;;;;;;12.40;8.87;;;;;;;-0.17;76.42;95738.19;5011857;28;20206;-79
2024/01/19 09:34:16;;;;;;;14.60;9.67;;;;;;;-0.30;77.13;95738.78;5028612;28;20191;-78
2024/01/19 09:36:41;;;;;;;13.57;9.80;;;;;;;-0.08;76.77;95755.56;5011571;28;20650;-78
2024/01/19 09:39:07;;;;;;;17.17;9.97;;;;;;;0.14;75.95;95758.66;5012615;28;20218;-76
2024/01/19 09:41:55;;;;;;;14.03;9.67;;;;;;;0.26;75.48;95764.84;4995312;28;20230;-79
2024/01/19 09:44:21;;;;;;;16.47;10.00;;;;;;;0.13;75.07;95772.34;5008559;28;20203;-78
2024/01/19 09:47:25;;;;;;;15.20;9.60;;;;;;;0.19;74.29;95779.69;5011611;28;20190;-78
2024/01/19 09:50:03;;;;;;;20.83;12.50;;;;;;;0.13;74.74;95777.44;5011875;28;20629;-78
2024/01/19 09:52:49;;;;;;;24.47;14.10;;;;;;;0.11;74.40;95788.66;5009955;28;20247;-78
2024/01/19 09:55:15;;;;;;;33.93;17.20;;;;;;;0.12;74.32;95796.22;5027570;28;20185;-78
2024/01/19 09:57:46;;;;;;;17.17;11.27;;;;;;;0.20;73.42;95795.84;4995308;28;20218;-78
2024/01/19 10:00:16;;;;;;;14.33;10.27;;;;;;;0.33;74.14;95799.41;5011134;28;20205;-78
2024/01/19 10:02:46;;;;;;;16.67;10.20;;;;;;;0.33;74.40;95804.50;5016782;28;20191;-78
2024/01/19 10:05:13;;;;;;;17.00;10.13;;;;;;;0.35;74.05;95814.63;4992114;28;20213;-78
2024/01/19 10:07:47;;;;;;;17.00;9.27;;;;;;;0.46;73.75;95823.41;5012154;28;20282;-79
2024/01/19 10:10:13;;;;;;;15.93;11.10;;;;;;;0.38;74.05;95820.44;5008931;28;20578;-79
2024/01/19 10:12:39;;;;;;;14.93;12.33;;;;;;;0.33;75.09;95824.94;5012904;28;20198;-79
2024/01/19 10:15:15;;;;;;;13.60;9.90;;;;;;;0.61;74.40;95828.63;4996914;28;20547;-78
2024/01/19 10:17:41;;;;;;;15.80;9.33;;;;;;;0.73;74.49;95828.81;5031260;28;20191;-78
2024/01/19 10:20:10;;;;;;;14.93;9.63;;;;;;;0.84;73.85;95835.91;5013015;28;20214;-79
2024/01/19 10:22:36;;;;;;;17.40;11.13;;;;;;;0.98;74.34;95840.31;4995119;28;20691;-80
2024/01/19 10:25:03;;;;;;;14.20;9.47;;;;;;;1.10;73.39;95832.78;4994708;28;20297;-78
2024/01/19 10:27:38;;;;;;;13.23;9.33;;;;;;;1.27;73.75;95842.09;5012712;28;20183;-78
2024/01/19 10:30:12;;;;;;;14.10;10.20;;;;;;;1.13;73.45;95836.91;5026392;28;20207;-77
2024/01/19 10:32:42;;;;;;;17.13;10.80;;;;;;;0.85;73.81;95840.94;5010022;28;20187;-80
2024/01/19 10:35:28;;;;;;;18.03;13.43;;;;;;;0.81;73.27;95839.47;5010193;28;20202;-78
2024/01/19 10:38:03;;;;;;;21.00;16.53;;;;;;;0.92;73.92;95835.50;5009644;28;20207;-77
2024/01/19 10:40:29;;;;;;;15.77;12.80;;;;;;;0.68;72.76;95838.44;5009442;28;20707;-78
2024/01/19 10:42:56;;;;;;;15.37;9.40;;;;;;;0.61;73.09;95847.34;5010484;28;20285;-78
2024/01/19 10:45:29;;;;;;;12.87;8.53;;;;;;;0.63;73.78;95847.28;5009892;28;20187;-80
2024/01/19 10:48:00;;;;;;;11.80;8.70;;;;;;;0.49;73.24;95847.97;5020053;28;20285;-78
2024/01/19 10:50:28;;;;;;;10.50;8.23;;;;;;;0.47;72.57;95849.78;5010318;28;20199;-78
2024/01/19 10:52:54;;;;;;;12.70;9.17;;;;;;;0.30;73.01;95857.50;5010644;28;20189;-79
2024/01/19 10:55:25;;;;;;;11.33;8.37;;;;;;;0.61;73.11;95852.44;5010543;28;20175;-79
2024/01/19 10:58:12;;;;;;;15.23;11.50;;;;;;;0.62;73.16;95856.69;5011408;28;20275;-75
2024/01/19 11:00:38;;;;;;;12.20;10.87;;;;;;;0.47;72.61;95853.19;5019698;28;20203;-76
2024/01/19 11:03:04;;;;;;;14.73;9.10;;;;;;;0.30;73.05;95853.22;5010506;28;20229;-76
2024/01/19 11:05:30;;;;;;;14.43;11.83;;;;;;;0.38;73.31;95851.09;4998458;28;20650;-77
2024/01/19 11:07:59;;;;;;;10.73;8.13;;;;;;;0.37;73.15;95846.06;5007747;28;20293;-77
2024/01/19 11:10:27;;;;;;;11.23;7.77;;;;;;;0.56;72.51;95849.31;5009441;28;20261;-77
2024/01/19 11:12:57;;;;;;;10.70;7.80;;;;;;;0.64;71.87;95849.75;5011437;28;20179;-77
2024/01/19 11:15:50;;;;;;;10.63;7.50;;;;;;;0.89;71.67;95856.13;5009930;28;20187;-77